sensor_id;sensor_type;location;lat;lon;timestamp;P1;durP1;ratioP1;P2;durP2;ratioP2
66970;SDS011;53901;51.466;-2.588;2022-07-23T00:00:08;8.45;;;3.53;;
66970;SDS011;53901;51.466;-2.588;2022-07-23T00:02:34;11.75;;;4.05;;
66970;SDS011;53901;51.466;-2.588;2022-07-23T00:05:00;13.75;;;4.00;;
66970;SDS011;53901;51.466;-2.588;2022-07-23T00:07:25;9.10;;;4.15;;
66970;SDS011;53901;51.466;-2.588;2022-07-23T00:09:51;14.98;;;4.45;;
66970;SDS011;53901;51.466;-2.588;2022-07-23T00:12:16;11.07;;;4.88;;
66970;SDS011;53901;51.466;-2.588;2022-07-23T00:14:42;9.93;;;4.32;;
66970;SDS011;53901;51.466;-2.588;2022-07-23T00:17:10;16.67;;;4.75;;
66970;SDS011;53901;51.466;-2.588;2022-07-23T00:19:36;9.23;;;4.88;;
66970;SDS011;53901;51.466;-2.588;2022-07-23T00:22:04;15.23;;;5.00;;
66970;SDS011;53901;51.466;-2.588;2022-07-23T00:24:29;9.80;;;5.05;;
66970;SDS011;53901;51.466;-2.588;2022-07-23T00:26:55;9.15;;;4.88;;
66970;SDS011;53901;51.466;-2.588;2022-07-23T00:29:20;13.45;;;5.07;;
66970;SDS011;53901;51.466;-2.588;2022-07-23T00:31:45;11.23;;;5.13;;
66970;SDS011;53901;51.466;-2.588;2022-07-23T00:34:11;15.27;;;5.65;;
66970;SDS011;53901;51.466;-2.588;2022-07-23T00:36:36;10.60;;;4.90;;
66970;SDS011;53901;51.466;-2.588;2022-07-23T00:39:02;13.75;;;5.30;;
66970;SDS011;53901;51.466;-2.588;2022-07-23T00:41:27;12.45;;;5.13;;
66970;SDS011;53901;51.466;-2.588;2022-07-23T00:43:53;15.82;;;5.30;;
66970;SDS011;53901;51.466;-2.588;2022-07-23T00:46:19;11.75;;;5.10;;
66970;SDS011;53901;51.466;-2.588;2022-07-23T00:48:45;12.70;;;5.20;;
66970;SDS011;53901;51.466;-2.588;2022-07-23T00:51:10;11.02;;;4.75;;
66970;SDS011;53901;51.466;-2.588;2022-07-23T00:53:36;10.70;;;5.00;;
66970;SDS011;53901;51.466;-2.588;2022-07-23T00:56:01;17.77;;;5.07;;
66970;SDS011;53901;51.466;-2.588;2022-07-23T00:58:27;8.45;;;4.70;;
66970;SDS011;53901;51.466;-2.588;2022-07-23T01:00:53;10.98;;;4.70;;
66970;SDS011;53901;51.466;-2.588;2022-07-23T01:03:18;8.20;;;4.60;;
66970;SDS011;53901;51.466;-2.588;2022-07-23T01:05:44;11.93;;;4.72;;
66970;SDS011;53901;51.466;-2.588;2022-07-23T01:08:10;13.30;;;4.90;;
66970;SDS011;53901;51.466;-2.588;2022-07-23T01:10:35;8.82;;;4.63;;
66970;SDS011;53901;51.466;-2.588;2022-07-23T01:15:31;13.65;;;4.68;;
66970;SDS011;53901;51.466;-2.588;2022-07-23T01:17:58;9.98;;;4.70;;
66970;SDS011;53901;51.466;-2.588;2022-07-23T01:20:24;10.75;;;4.85;;
66970;SDS011;53901;51.466;-2.588;2022-07-23T01:22:49;7.20;;;4.32;;
66970;SDS011;53901;51.466;-2.588;2022-07-23T01:25:15;14.85;;;4.72;;
66970;SDS011;53901;51.466;-2.588;2022-07-23T01:27:40;11.98;;;4.63;;
66970;SDS011;53901;51.466;-2.588;2022-07-23T01:30:06;9.57;;;4.30;;
66970;SDS011;53901;51.466;-2.588;2022-07-23T01:32:32;7.93;;;4.72;;
66970;SDS011;53901;51.466;-2.588;2022-07-23T01:35:00;11.75;;;4.68;;
66970;SDS011;53901;51.466;-2.588;2022-07-23T01:37:26;13.77;;;4.50;;
66970;SDS011;53901;51.466;-2.588;2022-07-23T01:39:51;9.38;;;4.78;;
66970;SDS011;53901;51.466;-2.588;2022-07-23T01:42:17;7.43;;;4.38;;
66970;SDS011;53901;51.466;-2.588;2022-07-23T01:44:42;11.27;;;4.63;;
66970;SDS011;53901;51.466;-2.588;2022-07-23T01:47:12;11.60;;;4.70;;
66970;SDS011;53901;51.466;-2.588;2022-07-23T01:49:38;10.82;;;4.82;;
66970;SDS011;53901;51.466;-2.588;2022-07-23T01:52:03;12.35;;;4.72;;
66970;SDS011;53901;51.466;-2.588;2022-07-23T01:54:32;11.02;;;4.93;;
66970;SDS011;53901;51.466;-2.588;2022-07-23T01:56:58;11.52;;;4.97;;
66970;SDS011;53901;51.466;-2.588;2022-07-23T01:59:24;15.60;;;5.10;;
66970;SDS011;53901;51.466;-2.588;2022-07-23T02:01:50;8.80;;;4.82;;
66970;SDS011;53901;51.466;-2.588;2022-07-23T02:04:16;9.50;;;4.45;;
66970;SDS011;53901;51.466;-2.588;2022-07-23T02:06:42;15.23;;;5.07;;
66970;SDS011;53901;51.466;-2.588;2022-07-23T02:09:07;10.70;;;4.90;;
66970;SDS011;53901;51.466;-2.588;2022-07-23T02:11:33;10.55;;;5.20;;
66970;SDS011;53901;51.466;-2.588;2022-07-23T02:13:58;9.02;;;4.93;;
66970;SDS011;53901;51.466;-2.588;2022-07-23T02:16:24;10.38;;;5.15;;
66970;SDS011;53901;51.466;-2.588;2022-07-23T02:18:49;8.30;;;4.80;;
66970;SDS011;53901;51.466;-2.588;2022-07-23T02:21:15;9.75;;;5.00;;
66970;SDS011;53901;51.466;-2.588;2022-07-23T02:23:40;14.18;;;5.45;;
66970;SDS011;53901;51.466;-2.588;2022-07-23T02:26:05;11.05;;;4.90;;
66970;SDS011;53901;51.466;-2.588;2022-07-23T02:28:31;10.10;;;5.30;;
66970;SDS011;53901;51.466;-2.588;2022-07-23T02:30:56;8.27;;;4.55;;
66970;SDS011;53901;51.466;-2.588;2022-07-23T02:33:22;11.55;;;4.93;;
66970;SDS011;53901;51.466;-2.588;2022-07-23T02:35:47;11.13;;;4.95;;
66970;SDS011;53901;51.466;-2.588;2022-07-23T02:38:13;11.02;;;4.88;;
66970;SDS011;53901;51.466;-2.588;2022-07-23T02:40:38;9.25;;;4.95;;
66970;SDS011;53901;51.466;-2.588;2022-07-23T02:43:03;13.95;;;4.75;;
66970;SDS011;53901;51.466;-2.588;2022-07-23T02:45:29;9.75;;;4.72;;
66970;SDS011;53901;51.466;-2.588;2022-07-23T02:47:55;11.95;;;4.80;;
66970;SDS011;53901;51.466;-2.588;2022-07-23T02:50:20;11.13;;;4.35;;
66970;SDS011;53901;51.466;-2.588;2022-07-23T02:52:46;7.82;;;4.22;;
66970;SDS011;53901;51.466;-2.588;2022-07-23T02:55:11;8.70;;;4.60;;
66970;SDS011;53901;51.466;-2.588;2022-07-23T02:57:37;9.38;;;4.68;;
66970;SDS011;53901;51.466;-2.588;2022-07-23T03:00:03;9.32;;;4.13;;
66970;SDS011;53901;51.466;-2.588;2022-07-23T03:02:31;8.10;;;4.05;;
66970;SDS011;53901;51.466;-2.588;2022-07-23T03:04:56;8.77;;;4.13;;
66970;SDS011;53901;51.466;-2.588;2022-07-23T03:07:22;7.82;;;4.18;;
66970;SDS011;53901;51.466;-2.588;2022-07-23T03:09:47;8.55;;;4.70;;
66970;SDS011;53901;51.466;-2.588;2022-07-23T03:12:13;8.88;;;4.30;;
66970;SDS011;53901;51.466;-2.588;2022-07-23T03:14:38;7.00;;;4.18;;
66970;SDS011;53901;51.466;-2.588;2022-07-23T03:17:04;9.73;;;3.95;;
66970;SDS011;53901;51.466;-2.588;2022-07-23T03:19:30;6.93;;;3.70;;
66970;SDS011;53901;51.466;-2.588;2022-07-23T03:21:55;9.48;;;4.00;;
66970;SDS011;53901;51.466;-2.588;2022-07-23T03:24:20;6.85;;;3.67;;
66970;SDS011;53901;51.466;-2.588;2022-07-23T03:26:48;8.57;;;3.65;;
66970;SDS011;53901;51.466;-2.588;2022-07-23T03:29:14;8.75;;;3.45;;
66970;SDS011;53901;51.466;-2.588;2022-07-23T03:31:39;7.63;;;4.00;;
66970;SDS011;53901;51.466;-2.588;2022-07-23T03:34:05;8.07;;;3.80;;
66970;SDS011;53901;51.466;-2.588;2022-07-23T03:36:30;12.02;;;3.75;;
66970;SDS011;53901;51.466;-2.588;2022-07-23T03:38:55;7.53;;;3.67;;
66970;SDS011;53901;51.466;-2.588;2022-07-23T03:41:21;7.07;;;3.60;;
66970;SDS011;53901;51.466;-2.588;2022-07-23T03:43:46;8.85;;;3.55;;
66970;SDS011;53901;51.466;-2.588;2022-07-23T03:46:12;6.55;;;3.40;;
66970;SDS011;53901;51.466;-2.588;2022-07-23T03:48:37;6.25;;;3.60;;
66970;SDS011;53901;51.466;-2.588;2022-07-23T03:51:03;5.57;;;3.35;;
66970;SDS011;53901;51.466;-2.588;2022-07-23T03:53:29;10.43;;;3.42;;
66970;SDS011;53901;51.466;-2.588;2022-07-23T03:55:55;7.50;;;3.47;;
66970;SDS011;53901;51.466;-2.588;2022-07-23T03:58:20;6.32;;;3.40;;
66970;SDS011;53901;51.466;-2.588;2022-07-23T04:00:46;7.95;;;3.72;;
66970;SDS011;53901;51.466;-2.588;2022-07-23T04:03:11;8.07;;;3.55;;
66970;SDS011;53901;51.466;-2.588;2022-07-23T04:05:37;8.15;;;4.00;;
66970;SDS011;53901;51.466;-2.588;2022-07-23T04:08:02;5.15;;;2.90;;
66970;SDS011;53901;51.466;-2.588;2022-07-23T04:10:28;7.10;;;3.63;;
66970;SDS011;53901;51.466;-2.588;2022-07-23T04:12:53;6.03;;;3.20;;
66970;SDS011;53901;51.466;-2.588;2022-07-23T04:15:19;6.55;;;3.65;;
66970;SDS011;53901;51.466;-2.588;2022-07-23T04:17:45;5.25;;;3.00;;
66970;SDS011;53901;51.466;-2.588;2022-07-23T04:20:11;15.00;;;4.63;;
66970;SDS011;53901;51.466;-2.588;2022-07-23T04:22:37;6.38;;;4.22;;
66970;SDS011;53901;51.466;-2.588;2022-07-23T04:25:03;10.07;;;4.03;;
66970;SDS011;53901;51.466;-2.588;2022-07-23T04:27:29;7.63;;;4.07;;
66970;SDS011;53901;51.466;-2.588;2022-07-23T04:29:54;7.50;;;3.95;;
66970;SDS011;53901;51.466;-2.588;2022-07-23T04:32:20;5.68;;;4.13;;
66970;SDS011;53901;51.466;-2.588;2022-07-23T04:34:55;9.10;;;4.10;;
66970;SDS011;53901;51.466;-2.588;2022-07-23T04:37:21;6.55;;;4.20;;
66970;SDS011;53901;51.466;-2.588;2022-07-23T04:39:46;9.90;;;4.20;;
66970;SDS011;53901;51.466;-2.588;2022-07-23T04:42:12;10.70;;;4.10;;
66970;SDS011;53901;51.466;-2.588;2022-07-23T04:44:37;8.50;;;4.20;;
66970;SDS011;53901;51.466;-2.588;2022-07-23T04:47:02;13.68;;;4.15;;
66970;SDS011;53901;51.466;-2.588;2022-07-23T04:49:28;7.35;;;4.05;;
66970;SDS011;53901;51.466;-2.588;2022-07-23T04:51:53;7.47;;;3.72;;
66970;SDS011;53901;51.466;-2.588;2022-07-23T04:54:19;9.80;;;4.28;;
66970;SDS011;53901;51.466;-2.588;2022-07-23T04:56:44;9.70;;;3.85;;
66970;SDS011;53901;51.466;-2.588;2022-07-23T04:59:10;6.35;;;3.65;;
66970;SDS011;53901;51.466;-2.588;2022-07-23T05:01:35;10.00;;;4.20;;
66970;SDS011;53901;51.466;-2.588;2022-07-23T05:04:01;7.35;;;4.57;;
66970;SDS011;53901;51.466;-2.588;2022-07-23T05:06:26;12.05;;;5.45;;
66970;SDS011;53901;51.466;-2.588;2022-07-23T05:08:51;8.00;;;4.22;;
66970;SDS011;53901;51.466;-2.588;2022-07-23T05:11:17;7.78;;;4.53;;
66970;SDS011;53901;51.466;-2.588;2022-07-23T05:13:42;8.77;;;4.07;;
66970;SDS011;53901;51.466;-2.588;2022-07-23T05:16:08;7.00;;;4.07;;
66970;SDS011;53901;51.466;-2.588;2022-07-23T05:18:33;10.88;;;4.40;;
66970;SDS011;53901;51.466;-2.588;2022-07-23T05:20:59;7.93;;;4.25;;
66970;SDS011;53901;51.466;-2.588;2022-07-23T05:23:24;7.85;;;4.43;;
66970;SDS011;53901;51.466;-2.588;2022-07-23T05:25:49;9.82;;;4.30;;
66970;SDS011;53901;51.466;-2.588;2022-07-23T05:28:15;9.13;;;4.63;;
66970;SDS011;53901;51.466;-2.588;2022-07-23T05:30:40;10.85;;;4.40;;
66970;SDS011;53901;51.466;-2.588;2022-07-23T05:33:06;9.65;;;4.18;;
66970;SDS011;53901;51.466;-2.588;2022-07-23T05:35:33;9.45;;;4.13;;
66970;SDS011;53901;51.466;-2.588;2022-07-23T05:37:58;10.25;;;4.13;;
66970;SDS011;53901;51.466;-2.588;2022-07-23T05:40:23;9.05;;;4.18;;
66970;SDS011;53901;51.466;-2.588;2022-07-23T05:42:49;11.05;;;4.32;;
66970;SDS011;53901;51.466;-2.588;2022-07-23T05:45:14;7.32;;;3.80;;
66970;SDS011;53901;51.466;-2.588;2022-07-23T05:47:43;11.18;;;4.35;;
66970;SDS011;53901;51.466;-2.588;2022-07-23T05:50:10;7.55;;;3.85;;
66970;SDS011;53901;51.466;-2.588;2022-07-23T05:52:36;8.32;;;4.10;;
66970;SDS011;53901;51.466;-2.588;2022-07-23T05:55:02;9.27;;;4.55;;
66970;SDS011;53901;51.466;-2.588;2022-07-23T05:57:28;7.07;;;4.07;;
66970;SDS011;53901;51.466;-2.588;2022-07-23T05:59:53;10.52;;;4.57;;
66970;SDS011;53901;51.466;-2.588;2022-07-23T06:02:18;7.70;;;4.00;;
66970;SDS011;53901;51.466;-2.588;2022-07-23T06:04:44;10.32;;;3.97;;
66970;SDS011;53901;51.466;-2.588;2022-07-23T06:07:10;6.43;;;3.35;;
66970;SDS011;53901;51.466;-2.588;2022-07-23T06:09:36;8.13;;;4.70;;
66970;SDS011;53901;51.466;-2.588;2022-07-23T06:12:01;14.30;;;4.55;;
66970;SDS011;53901;51.466;-2.588;2022-07-23T06:14:26;9.73;;;4.55;;
66970;SDS011;53901;51.466;-2.588;2022-07-23T06:16:52;11.50;;;4.63;;
66970;SDS011;53901;51.466;-2.588;2022-07-23T06:19:17;7.53;;;3.90;;
66970;SDS011;53901;51.466;-2.588;2022-07-23T06:21:43;6.50;;;3.50;;
66970;SDS011;53901;51.466;-2.588;2022-07-23T06:24:08;12.50;;;4.80;;
66970;SDS011;53901;51.466;-2.588;2022-07-23T06:26:34;5.53;;;3.55;;
66970;SDS011;53901;51.466;-2.588;2022-07-23T06:28:59;6.40;;;3.47;;
66970;SDS011;53901;51.466;-2.588;2022-07-23T06:31:25;7.20;;;3.55;;
66970;SDS011;53901;51.466;-2.588;2022-07-23T06:33:50;6.95;;;3.47;;
66970;SDS011;53901;51.466;-2.588;2022-07-23T06:36:15;6.03;;;3.70;;
66970;SDS011;53901;51.466;-2.588;2022-07-23T06:38:41;9.88;;;3.72;;
66970;SDS011;53901;51.466;-2.588;2022-07-23T06:41:09;8.98;;;3.42;;
66970;SDS011;53901;51.466;-2.588;2022-07-23T06:43:35;8.18;;;3.40;;
66970;SDS011;53901;51.466;-2.588;2022-07-23T06:46:00;6.35;;;3.50;;
66970;SDS011;53901;51.466;-2.588;2022-07-23T06:48:26;6.20;;;3.45;;
66970;SDS011;53901;51.466;-2.588;2022-07-23T06:50:51;6.50;;;3.28;;
66970;SDS011;53901;51.466;-2.588;2022-07-23T06:53:17;6.80;;;3.28;;
66970;SDS011;53901;51.466;-2.588;2022-07-23T06:55:43;8.23;;;3.40;;
66970;SDS011;53901;51.466;-2.588;2022-07-23T06:58:08;5.40;;;3.30;;
66970;SDS011;53901;51.466;-2.588;2022-07-23T07:00:35;7.18;;;3.05;;
66970;SDS011;53901;51.466;-2.588;2022-07-23T07:03:00;7.57;;;3.25;;
66970;SDS011;53901;51.466;-2.588;2022-07-23T07:05:26;6.35;;;2.90;;
66970;SDS011;53901;51.466;-2.588;2022-07-23T07:07:53;7.00;;;3.47;;
66970;SDS011;53901;51.466;-2.588;2022-07-23T07:10:21;6.80;;;4.15;;
66970;SDS011;53901;51.466;-2.588;2022-07-23T07:12:47;10.02;;;3.30;;
66970;SDS011;53901;51.466;-2.588;2022-07-23T07:15:13;5.75;;;2.72;;
66970;SDS011;53901;51.466;-2.588;2022-07-23T07:17:38;3.97;;;2.60;;
66970;SDS011;53901;51.466;-2.588;2022-07-23T07:20:04;3.53;;;2.42;;
66970;SDS011;53901;51.466;-2.588;2022-07-23T07:22:30;8.27;;;2.70;;
66970;SDS011;53901;51.466;-2.588;2022-07-23T07:24:56;5.55;;;2.80;;
66970;SDS011;53901;51.466;-2.588;2022-07-23T07:27:21;5.38;;;2.80;;
66970;SDS011;53901;51.466;-2.588;2022-07-23T07:29:47;7.35;;;2.95;;
66970;SDS011;53901;51.466;-2.588;2022-07-23T07:32:12;9.90;;;3.17;;
66970;SDS011;53901;51.466;-2.588;2022-07-23T07:34:38;4.22;;;2.30;;
66970;SDS011;53901;51.466;-2.588;2022-07-23T07:37:03;5.40;;;2.10;;
66970;SDS011;53901;51.466;-2.588;2022-07-23T07:39:29;5.10;;;2.80;;
66970;SDS011;53901;51.466;-2.588;2022-07-23T07:41:54;6.10;;;2.30;;
66970;SDS011;53901;51.466;-2.588;2022-07-23T07:44:19;7.90;;;2.38;;
66970;SDS011;53901;51.466;-2.588;2022-07-23T07:46:48;3.50;;;1.92;;
66970;SDS011;53901;51.466;-2.588;2022-07-23T07:49:13;6.55;;;2.20;;
66970;SDS011;53901;51.466;-2.588;2022-07-23T07:51:39;4.13;;;1.73;;
66970;SDS011;53901;51.466;-2.588;2022-07-23T07:54:04;4.97;;;2.30;;
66970;SDS011;53901;51.466;-2.588;2022-07-23T07:56:30;3.90;;;2.22;;
66970;SDS011;53901;51.466;-2.588;2022-07-23T07:58:55;5.18;;;1.85;;
66970;SDS011;53901;51.466;-2.588;2022-07-23T08:01:21;5.65;;;1.90;;
66970;SDS011;53901;51.466;-2.588;2022-07-23T08:03:46;2.88;;;1.50;;
66970;SDS011;53901;51.466;-2.588;2022-07-23T08:06:11;3.85;;;2.30;;
66970;SDS011;53901;51.466;-2.588;2022-07-23T08:08:37;3.13;;;1.70;;
66970;SDS011;53901;51.466;-2.588;2022-07-23T08:11:02;4.05;;;1.58;;
66970;SDS011;53901;51.466;-2.588;2022-07-23T08:13:28;2.28;;;1.30;;
66970;SDS011;53901;51.466;-2.588;2022-07-23T08:15:53;4.38;;;1.40;;
66970;SDS011;53901;51.466;-2.588;2022-07-23T08:18:19;11.15;;;2.42;;
66970;SDS011;53901;51.466;-2.588;2022-07-23T08:20:46;6.15;;;2.00;;
66970;SDS011;53901;51.466;-2.588;2022-07-23T08:23:11;3.47;;;1.40;;
66970;SDS011;53901;51.466;-2.588;2022-07-23T08:25:38;3.20;;;1.40;;
66970;SDS011;53901;51.466;-2.588;2022-07-23T08:28:06;3.53;;;1.40;;
66970;SDS011;53901;51.466;-2.588;2022-07-23T08:30:33;2.65;;;1.20;;
66970;SDS011;53901;51.466;-2.588;2022-07-23T08:33:00;2.22;;;1.08;;
66970;SDS011;53901;51.466;-2.588;2022-07-23T08:35:28;2.92;;;1.10;;
66970;SDS011;53901;51.466;-2.588;2022-07-23T08:37:54;3.50;;;1.95;;
66970;SDS011;53901;51.466;-2.588;2022-07-23T08:40:20;4.35;;;1.10;;
66970;SDS011;53901;51.466;-2.588;2022-07-23T08:42:50;3.28;;;1.17;;
66970;SDS011;53901;51.466;-2.588;2022-07-23T08:45:20;2.95;;;1.30;;
66970;SDS011;53901;51.466;-2.588;2022-07-23T08:47:53;3.08;;;1.58;;
66970;SDS011;53901;51.466;-2.588;2022-07-23T08:50:20;2.28;;;1.40;;
66970;SDS011;53901;51.466;-2.588;2022-07-23T08:52:47;2.60;;;1.58;;
66970;SDS011;53901;51.466;-2.588;2022-07-23T08:55:15;2.63;;;1.30;;
66970;SDS011;53901;51.466;-2.588;2022-07-23T08:57:41;1.85;;;1.10;;
66970;SDS011;53901;51.466;-2.588;2022-07-23T09:00:07;2.20;;;1.40;;
66970;SDS011;53901;51.466;-2.588;2022-07-23T09:02:40;3.90;;;1.33;;
66970;SDS011;53901;51.466;-2.588;2022-07-23T09:05:07;2.92;;;1.38;;
66970;SDS011;53901;51.466;-2.588;2022-07-23T09:07:33;2.75;;;1.35;;
66970;SDS011;53901;51.466;-2.588;2022-07-23T09:10:06;2.20;;;1.30;;
66970;SDS011;53901;51.466;-2.588;2022-07-23T09:12:35;1.85;;;1.40;;
66970;SDS011;53901;51.466;-2.588;2022-07-23T09:15:08;2.13;;;1.42;;
66970;SDS011;53901;51.466;-2.588;2022-07-23T09:17:43;2.97;;;1.50;;
66970;SDS011;53901;51.466;-2.588;2022-07-23T09:20:09;2.97;;;1.40;;
66970;SDS011;53901;51.466;-2.588;2022-07-23T09:22:36;2.63;;;1.38;;
66970;SDS011;53901;51.466;-2.588;2022-07-23T09:25:23;8.48;;;1.70;;
66970;SDS011;53901;51.466;-2.588;2022-07-23T09:27:55;3.15;;;1.80;;
66970;SDS011;53901;51.466;-2.588;2022-07-23T09:30:28;2.42;;;1.60;;
66970;SDS011;53901;51.466;-2.588;2022-07-23T09:33:11;4.30;;;2.10;;
66970;SDS011;53901;51.466;-2.588;2022-07-23T09:38:21;2.40;;;1.48;;
66970;SDS011;53901;51.466;-2.588;2022-07-23T09:41:04;2.33;;;1.45;;
66970;SDS011;53901;51.466;-2.588;2022-07-23T09:46:32;4.07;;;2.07;;
66970;SDS011;53901;51.466;-2.588;2022-07-23T09:48:52;4.82;;;1.90;;
66970;SDS011;53901;51.466;-2.588;2022-07-23T09:51:19;3.22;;;1.65;;
66970;SDS011;53901;51.466;-2.588;2022-07-23T09:53:54;2.78;;;1.55;;
66970;SDS011;53901;51.466;-2.588;2022-07-23T09:56:20;4.50;;;1.80;;
66970;SDS011;53901;51.466;-2.588;2022-07-23T09:58:46;6.75;;;1.95;;
66970;SDS011;53901;51.466;-2.588;2022-07-23T10:01:15;7.85;;;2.28;;
66970;SDS011;53901;51.466;-2.588;2022-07-23T10:03:41;5.45;;;1.70;;
66970;SDS011;53901;51.466;-2.588;2022-07-23T10:06:08;4.13;;;1.60;;
66970;SDS011;53901;51.466;-2.588;2022-07-23T10:08:39;3.40;;;1.65;;
66970;SDS011;53901;51.466;-2.588;2022-07-23T10:11:07;4.57;;;2.15;;
66970;SDS011;53901;51.466;-2.588;2022-07-23T10:13:33;2.22;;;1.63;;
66970;SDS011;53901;51.466;-2.588;2022-07-23T10:15:59;7.85;;;2.33;;
66970;SDS011;53901;51.466;-2.588;2022-07-23T10:18:25;3.17;;;2.00;;
66970;SDS011;53901;51.466;-2.588;2022-07-23T10:20:50;4.55;;;2.20;;
66970;SDS011;53901;51.466;-2.588;2022-07-23T10:29:07;3.40;;;2.08;;
66970;SDS011;53901;51.466;-2.588;2022-07-23T10:31:52;3.03;;;1.63;;
66970;SDS011;53901;51.466;-2.588;2022-07-23T10:34:58;3.38;;;1.60;;
66970;SDS011;53901;51.466;-2.588;2022-07-23T10:40:11;2.78;;;1.70;;
66970;SDS011;53901;51.466;-2.588;2022-07-23T10:42:41;4.65;;;2.00;;
66970;SDS011;53901;51.466;-2.588;2022-07-23T10:45:27;3.20;;;1.73;;
66970;SDS011;53901;51.466;-2.588;2022-07-23T10:48:14;3.70;;;2.08;;
66970;SDS011;53901;51.466;-2.588;2022-07-23T10:51:05;4.97;;;2.10;;
66970;SDS011;53901;51.466;-2.588;2022-07-23T10:59:16;3.08;;;1.40;;
66970;SDS011;53901;51.466;-2.588;2022-07-23T11:01:41;2.40;;;1.15;;
66970;SDS011;53901;51.466;-2.588;2022-07-23T11:04:07;2.97;;;1.27;;
66970;SDS011;53901;51.466;-2.588;2022-07-23T11:09:26;1.95;;;1.50;;
66970;SDS011;53901;51.466;-2.588;2022-07-23T11:17:33;4.15;;;2.10;;
66970;SDS011;53901;51.466;-2.588;2022-07-23T11:22:37;4.30;;;1.73;;
66970;SDS011;53901;51.466;-2.588;2022-07-23T11:25:11;5.20;;;2.10;;
66970;SDS011;53901;51.466;-2.588;2022-07-23T11:28:14;4.57;;;1.85;;
66970;SDS011;53901;51.466;-2.588;2022-07-23T11:30:44;4.28;;;2.00;;
66970;SDS011;53901;51.466;-2.588;2022-07-23T11:35:37;3.00;;;1.42;;
66970;SDS011;53901;51.466;-2.588;2022-07-23T11:38:07;4.07;;;1.65;;
66970;SDS011;53901;51.466;-2.588;2022-07-23T11:40:33;3.28;;;1.77;;
66970;SDS011;53901;51.466;-2.588;2022-07-23T11:43:02;2.72;;;1.42;;
66970;SDS011;53901;51.466;-2.588;2022-07-23T11:45:52;3.75;;;1.70;;
66970;SDS011;53901;51.466;-2.588;2022-07-23T11:48:26;2.15;;;1.63;;
66970;SDS011;53901;51.466;-2.588;2022-07-23T11:50:53;4.13;;;1.85;;
66970;SDS011;53901;51.466;-2.588;2022-07-23T11:53:23;3.85;;;1.98;;
66970;SDS011;53901;51.466;-2.588;2022-07-23T11:55:51;5.97;;;2.45;;
66970;SDS011;53901;51.466;-2.588;2022-07-23T11:58:17;3.58;;;1.80;;
66970;SDS011;53901;51.466;-2.588;2022-07-23T12:00:42;4.20;;;2.10;;
66970;SDS011;53901;51.466;-2.588;2022-07-23T12:03:08;5.07;;;2.10;;
66970;SDS011;53901;51.466;-2.588;2022-07-23T12:05:34;5.03;;;2.00;;
66970;SDS011;53901;51.466;-2.588;2022-07-23T12:08:02;9.57;;;2.15;;
66970;SDS011;53901;51.466;-2.588;2022-07-23T12:13:13;7.68;;;2.10;;
66970;SDS011;53901;51.466;-2.588;2022-07-23T12:15:44;5.22;;;3.08;;
66970;SDS011;53901;51.466;-2.588;2022-07-23T12:18:13;5.00;;;2.38;;
66970;SDS011;53901;51.466;-2.588;2022-07-23T12:20:41;5.03;;;2.38;;
66970;SDS011;53901;51.466;-2.588;2022-07-23T12:23:16;4.28;;;2.20;;
66970;SDS011;53901;51.466;-2.588;2022-07-23T12:25:42;4.95;;;2.20;;
66970;SDS011;53901;51.466;-2.588;2022-07-23T12:33:21;5.63;;;2.13;;
66970;SDS011;53901;51.466;-2.588;2022-07-23T12:35:47;5.28;;;2.58;;
66970;SDS011;53901;51.466;-2.588;2022-07-23T12:38:17;5.20;;;2.50;;
66970;SDS011;53901;51.466;-2.588;2022-07-23T12:43:18;4.15;;;2.40;;
66970;SDS011;53901;51.466;-2.588;2022-07-23T12:45:45;4.55;;;2.38;;
66970;SDS011;53901;51.466;-2.588;2022-07-23T12:48:17;3.58;;;2.10;;
66970;SDS011;53901;51.466;-2.588;2022-07-23T12:58:48;4.80;;;1.90;;
66970;SDS011;53901;51.466;-2.588;2022-07-23T13:04:00;2.92;;;2.28;;
66970;SDS011;53901;51.466;-2.588;2022-07-23T13:06:37;6.00;;;2.45;;
66970;SDS011;53901;51.466;-2.588;2022-07-23T13:09:05;7.35;;;3.47;;
66970;SDS011;53901;51.466;-2.588;2022-07-23T13:11:31;4.30;;;2.45;;
66970;SDS011;53901;51.466;-2.588;2022-07-23T13:13:58;5.40;;;2.38;;
66970;SDS011;53901;51.466;-2.588;2022-07-23T13:16:25;6.80;;;2.60;;
66970;SDS011;53901;51.466;-2.588;2022-07-23T13:18:51;4.15;;;2.55;;
66970;SDS011;53901;51.466;-2.588;2022-07-23T13:21:17;7.00;;;2.80;;
66970;SDS011;53901;51.466;-2.588;2022-07-23T13:23:42;5.95;;;2.67;;
66970;SDS011;53901;51.466;-2.588;2022-07-23T13:26:08;6.40;;;2.70;;
66970;SDS011;53901;51.466;-2.588;2022-07-23T13:28:34;6.07;;;2.88;;
66970;SDS011;53901;51.466;-2.588;2022-07-23T13:30:59;6.20;;;3.20;;
66970;SDS011;53901;51.466;-2.588;2022-07-23T13:33:28;7.32;;;3.10;;
66970;SDS011;53901;51.466;-2.588;2022-07-23T13:35:54;5.72;;;2.90;;
66970;SDS011;53901;51.466;-2.588;2022-07-23T13:38:20;8.88;;;2.63;;
66970;SDS011;53901;51.466;-2.588;2022-07-23T13:40:49;6.55;;;3.03;;
66970;SDS011;53901;51.466;-2.588;2022-07-23T13:43:17;5.30;;;3.03;;
66970;SDS011;53901;51.466;-2.588;2022-07-23T13:45:44;3.75;;;2.60;;
66970;SDS011;53901;51.466;-2.588;2022-07-23T13:48:11;4.28;;;2.40;;
66970;SDS011;53901;51.466;-2.588;2022-07-23T13:50:37;4.50;;;2.40;;
66970;SDS011;53901;51.466;-2.588;2022-07-23T13:53:04;6.05;;;2.65;;
66970;SDS011;53901;51.466;-2.588;2022-07-23T13:55:31;4.82;;;2.42;;
66970;SDS011;53901;51.466;-2.588;2022-07-23T13:57:57;5.20;;;2.63;;
66970;SDS011;53901;51.466;-2.588;2022-07-23T14:00:23;9.30;;;2.53;;
66970;SDS011;53901;51.466;-2.588;2022-07-23T14:02:49;6.00;;;2.70;;
66970;SDS011;53901;51.466;-2.588;2022-07-23T14:05:14;4.82;;;2.25;;
66970;SDS011;53901;51.466;-2.588;2022-07-23T14:07:40;7.00;;;2.80;;
66970;SDS011;53901;51.466;-2.588;2022-07-23T14:10:08;5.47;;;2.67;;
66970;SDS011;53901;51.466;-2.588;2022-07-23T14:12:34;4.72;;;2.45;;
66970;SDS011;53901;51.466;-2.588;2022-07-23T14:14:59;5.57;;;2.53;;
66970;SDS011;53901;51.466;-2.588;2022-07-23T14:17:25;6.30;;;2.50;;
66970;SDS011;53901;51.466;-2.588;2022-07-23T14:19:51;4.20;;;2.10;;
66970;SDS011;53901;51.466;-2.588;2022-07-23T14:22:16;5.30;;;2.70;;
66970;SDS011;53901;51.466;-2.588;2022-07-23T14:24:42;9.00;;;2.58;;
66970;SDS011;53901;51.466;-2.588;2022-07-23T14:27:08;5.70;;;2.75;;
66970;SDS011;53901;51.466;-2.588;2022-07-23T14:29:33;6.18;;;2.72;;
66970;SDS011;53901;51.466;-2.588;2022-07-23T14:31:59;4.75;;;2.45;;
66970;SDS011;53901;51.466;-2.588;2022-07-23T14:34:24;5.28;;;2.70;;
66970;SDS011;53901;51.466;-2.588;2022-07-23T14:36:50;5.13;;;3.10;;
66970;SDS011;53901;51.466;-2.588;2022-07-23T14:39:17;4.45;;;2.70;;
66970;SDS011;53901;51.466;-2.588;2022-07-23T14:41:42;4.53;;;2.75;;
66970;SDS011;53901;51.466;-2.588;2022-07-23T14:44:08;10.02;;;3.40;;
66970;SDS011;53901;51.466;-2.588;2022-07-23T14:46:33;4.75;;;2.70;;
66970;SDS011;53901;51.466;-2.588;2022-07-23T14:48:58;5.57;;;3.20;;
66970;SDS011;53901;51.466;-2.588;2022-07-23T14:51:24;7.57;;;3.13;;
66970;SDS011;53901;51.466;-2.588;2022-07-23T14:53:49;4.50;;;3.00;;
66970;SDS011;53901;51.466;-2.588;2022-07-23T14:56:16;5.50;;;3.13;;
66970;SDS011;53901;51.466;-2.588;2022-07-23T14:58:41;10.13;;;4.03;;
66970;SDS011;53901;51.466;-2.588;2022-07-23T15:01:07;4.70;;;2.92;;
66970;SDS011;53901;51.466;-2.588;2022-07-23T15:03:33;8.80;;;2.85;;
66970;SDS011;53901;51.466;-2.588;2022-07-23T15:05:58;5.03;;;3.03;;
66970;SDS011;53901;51.466;-2.588;2022-07-23T15:08:24;6.32;;;3.40;;
66970;SDS011;53901;51.466;-2.588;2022-07-23T15:10:50;4.07;;;2.90;;
66970;SDS011;53901;51.466;-2.588;2022-07-23T15:13:15;6.63;;;3.40;;
66970;SDS011;53901;51.466;-2.588;2022-07-23T15:15:41;6.00;;;3.17;;
66970;SDS011;53901;51.466;-2.588;2022-07-23T15:18:06;8.48;;;3.03;;
66970;SDS011;53901;51.466;-2.588;2022-07-23T15:20:32;6.25;;;2.80;;
66970;SDS011;53901;51.466;-2.588;2022-07-23T15:22:57;5.28;;;2.50;;
66970;SDS011;53901;51.466;-2.588;2022-07-23T15:25:23;6.95;;;3.10;;